createdAt,value
2019-02-24T00:00:37.559Z,6.80
2019-02-24T00:01:37.578Z,6.20
2019-02-24T00:02:37.571Z,6.50
2019-02-24T00:03:37.528Z,6.50
2019-02-24T00:04:37.503Z,6.40
2019-02-24T00:05:37.504Z,6.40
2019-02-24T00:06:37.539Z,6.50
2019-02-24T00:07:37.496Z,6.60
2019-02-24T00:08:37.464Z,6.50
2019-02-24T00:09:37.446Z,6.80
2019-02-24T00:10:37.408Z,6.30
2019-02-24T00:11:37.447Z,6.40
2019-02-24T00:12:37.394Z,6.70
2019-02-24T00:13:37.385Z,6.40
2019-02-24T00:14:37.387Z,6.40
2019-02-24T00:15:37.364Z,6.50
2019-02-24T00:16:37.387Z,6.40
2019-02-24T00:17:37.338Z,6.90
2019-02-24T00:18:37.330Z,6.20
2019-02-24T00:19:37.325Z,6.10
2019-02-24T00:20:37.308Z,6.20
2019-02-24T00:21:37.292Z,6.00
2019-02-24T00:22:37.307Z,6.40
2019-02-24T00:23:37.277Z,6.30
2019-02-24T00:24:37.259Z,6.30
2019-02-24T00:25:37.296Z,5.90
2019-02-24T00:26:37.245Z,6.10
2019-02-24T00:27:37.272Z,5.60
2019-02-24T00:28:37.313Z,5.70
2019-02-24T00:29:37.211Z,6.30
2019-02-24T00:30:37.234Z,6.00
2019-02-24T00:31:37.192Z,6.80
2019-02-24T00:32:37.219Z,6.80
2019-02-24T00:33:37.179Z,7.00
2019-02-24T00:34:37.254Z,6.70
2019-02-24T00:35:37.146Z,7.30
2019-02-24T00:36:37.208Z,7.40
2019-02-24T00:37:37.205Z,7.40
2019-02-24T00:38:37.119Z,7.20
2019-02-24T00:39:37.116Z,7.00
2019-02-24T00:40:37.100Z,7.10
2019-02-24T00:41:37.325Z,7.40
2019-02-24T00:42:37.069Z,7.20
2019-02-24T00:43:37.064Z,7.70
2019-02-24T00:44:37.077Z,6.50
2019-02-24T00:45:37.058Z,7.90
2019-02-24T00:46:37.101Z,6.80
2019-02-24T00:47:37.063Z,7.30
2019-02-24T00:48:37.018Z,6.80
2019-02-24T00:49:36.995Z,7.30
2019-02-24T00:50:37.102Z,7.40
2019-02-24T00:51:36.985Z,7.70
2019-02-24T00:52:37.011Z,7.10
2019-02-24T00:53:36.958Z,7.30
2019-02-24T00:54:36.947Z,6.90
2019-02-24T00:55:36.932Z,6.50
2019-02-24T00:56:36.935Z,6.90
2019-02-24T00:57:36.948Z,6.30
2019-02-24T00:58:36.912Z,6.40
2019-02-24T00:59:36.904Z,6.60
2019-02-24T01:00:36.887Z,6.70
2019-02-24T01:01:36.877Z,7.10
2019-02-24T01:02:36.887Z,6.60
2019-02-24T01:03:36.848Z,6.70
2019-02-24T01:04:36.838Z,6.70
2019-02-24T01:05:36.847Z,6.80
2019-02-24T01:06:36.819Z,7.10
2019-02-24T01:07:36.828Z,6.90
2019-02-24T01:08:36.791Z,6.20
2019-02-24T01:09:36.785Z,6.00
2019-02-24T01:10:36.778Z,6.40
2019-02-24T01:11:36.763Z,5.90
2019-02-24T01:12:36.752Z,6.50
2019-02-24T01:13:44.816Z,6.30
2019-02-24T01:14:36.725Z,6.30
2019-02-24T01:15:36.726Z,6.60
2019-02-24T01:16:36.711Z,6.50
2019-02-24T01:17:36.702Z,6.30
2019-02-24T01:18:36.721Z,6.40
2019-02-24T01:19:36.681Z,6.40
2019-02-24T01:20:36.667Z,6.70
2019-02-24T01:21:36.665Z,6.60
2019-02-24T01:22:36.651Z,5.40
2019-02-24T01:23:36.660Z,6.20
2019-02-24T01:24:36.628Z,6.50
2019-02-24T01:25:36.618Z,6.40
2019-02-24T01:26:36.600Z,7.00
2019-02-24T01:27:36.595Z,6.30
2019-02-24T01:28:36.584Z,6.60
2019-02-24T01:29:36.618Z,6.80
2019-02-24T01:30:36.594Z,6.30
2019-02-24T01:31:36.567Z,6.20
2019-02-24T01:32:36.540Z,6.10
2019-02-24T01:33:36.531Z,6.40
2019-02-24T01:34:36.547Z,5.90
2019-02-24T01:35:36.508Z,6.20
2019-02-24T01:36:36.499Z,6.50
2019-02-24T01:37:36.486Z,6.70
2019-02-24T01:38:36.477Z,6.70
2019-02-24T01:39:36.471Z,6.60
2019-02-24T01:40:36.497Z,6.00
2019-02-24T01:41:36.446Z,6.30
2019-02-24T01:42:36.444Z,6.20
2019-02-24T01:43:36.419Z,6.70
2019-02-24T01:44:36.426Z,5.60
2019-02-24T01:45:36.439Z,5.70
2019-02-24T01:46:36.389Z,5.90
2019-02-24T01:47:36.418Z,5.90
2019-02-24T01:48:36.417Z,6.30
2019-02-24T01:49:36.374Z,6.30
2019-02-24T01:50:36.379Z,7.00
2019-02-24T01:51:36.410Z,6.30
2019-02-24T01:52:36.348Z,6.00
2019-02-24T01:53:36.347Z,6.70
2019-02-24T01:54:36.401Z,6.70
2019-02-24T01:55:36.345Z,6.70
2019-02-24T01:56:36.313Z,6.10
2019-02-24T01:57:36.339Z,6.00
2019-02-24T01:58:36.301Z,6.10
2019-02-24T01:59:36.290Z,6.50
2019-02-24T02:00:36.284Z,5.90
2019-02-24T02:01:36.265Z,6.40
2019-02-24T02:02:36.321Z,6.10
2019-02-24T02:03:36.243Z,6.30
2019-02-24T02:04:36.229Z,6.80
2019-02-24T02:05:36.216Z,6.40
2019-02-24T02:06:36.211Z,6.90
2019-02-24T02:07:36.217Z,7.60
2019-02-24T02:08:36.220Z,7.30
2019-02-24T02:09:36.223Z,6.70
2019-02-24T02:10:36.203Z,6.30
2019-02-24T02:11:36.161Z,6.40
2019-02-24T02:12:36.154Z,6.70
2019-02-24T02:13:36.464Z,6.70
2019-02-24T02:14:36.127Z,7.30
2019-02-24T02:15:36.111Z,7.60
2019-02-24T02:16:36.107Z,7.60
2019-02-24T02:17:36.079Z,7.30
2019-02-24T02:18:36.062Z,7.80
2019-02-24T02:19:36.077Z,7.30
2019-02-24T02:20:36.041Z,7.70
2019-02-24T02:21:36.062Z,7.20
2019-02-24T02:22:36.030Z,7.60
2019-02-24T02:23:36.021Z,7.70
2019-02-24T02:24:36.076Z,7.60
2019-02-24T02:25:36.021Z,7.10
2019-02-24T02:26:36.010Z,7.40
2019-02-24T02:27:35.995Z,6.50
2019-02-24T02:28:43.795Z,7.00
2019-02-24T02:29:37.023Z,6.70
2019-02-24T02:30:35.962Z,6.60
2019-02-24T02:31:35.942Z,6.50
2019-02-24T02:32:35.911Z,6.80
2019-02-24T02:33:35.926Z,7.50
2019-02-24T02:34:36.755Z,6.30
2019-02-24T02:35:35.932Z,6.90
2019-02-24T02:36:35.859Z,6.50
2019-02-24T02:37:35.873Z,6.40
2019-02-24T02:38:35.875Z,6.10
2019-02-24T02:39:35.912Z,6.90
2019-02-24T02:40:35.826Z,6.60
2019-02-24T02:41:35.823Z,6.80
2019-02-24T02:42:35.809Z,6.90
2019-02-24T02:43:35.793Z,7.00
2019-02-24T02:44:35.803Z,7.40
2019-02-24T02:45:35.804Z,7.10
2019-02-24T02:46:35.769Z,6.30
2019-02-24T02:47:35.750Z,7.00
2019-02-24T02:48:35.734Z,6.50
2019-02-24T02:49:35.720Z,7.20
2019-02-24T02:50:35.736Z,6.80
2019-02-24T02:51:35.706Z,6.90
2019-02-24T02:52:35.700Z,7.00
2019-02-24T02:53:35.688Z,7.20
2019-02-24T02:54:35.679Z,7.20
2019-02-24T02:55:35.686Z,7.70
2019-02-24T02:56:35.653Z,6.60
2019-02-24T02:57:35.649Z,7.20
2019-02-24T02:58:35.636Z,7.30
2019-02-24T02:59:35.616Z,7.00
2019-02-24T03:00:35.635Z,7.20
2019-02-24T03:01:35.595Z,7.30
2019-02-24T03:02:35.591Z,6.80
2019-02-24T03:03:35.580Z,6.80
2019-02-24T03:04:35.569Z,6.30
2019-02-24T03:05:35.592Z,6.80
2019-02-24T03:06:35.584Z,7.20
2019-02-24T03:07:35.533Z,6.40
2019-02-24T03:08:35.523Z,7.20
2019-02-24T03:09:35.512Z,6.90
2019-02-24T03:10:35.552Z,6.60
2019-02-24T03:11:35.499Z,7.20
2019-02-24T03:12:35.487Z,6.40
2019-02-24T03:13:35.468Z,7.00
2019-02-24T03:14:35.462Z,7.00
2019-02-24T03:15:35.483Z,6.70
2019-02-24T03:16:35.471Z,6.10
2019-02-24T03:17:35.438Z,6.70
2019-02-24T03:18:35.423Z,6.30
2019-02-24T03:19:35.413Z,6.50
2019-02-24T03:20:35.395Z,6.60
2019-02-24T03:21:35.422Z,6.40
2019-02-24T03:22:35.374Z,6.90
2019-02-24T03:23:35.371Z,6.20
2019-02-24T03:24:35.364Z,6.60
2019-02-24T03:25:35.350Z,6.20
2019-02-24T03:26:35.390Z,6.30
2019-02-24T03:27:35.320Z,6.50
2019-02-24T03:28:35.313Z,6.30
2019-02-24T03:29:35.313Z,6.10
2019-02-24T03:30:35.386Z,6.40
2019-02-24T03:31:35.330Z,6.40
2019-02-24T03:32:35.271Z,6.30
2019-02-24T03:33:35.260Z,7.00
2019-02-24T03:34:35.269Z,5.80
2019-02-24T03:35:35.265Z,6.20
2019-02-24T03:36:35.358Z,6.20
2019-02-24T03:37:35.253Z,6.50
2019-02-24T03:38:35.213Z,6.60
2019-02-24T03:39:35.196Z,6.60
2019-02-24T03:40:35.184Z,6.30
2019-02-24T03:41:35.183Z,6.60
2019-02-24T03:42:35.191Z,6.20
2019-02-24T03:43:35.163Z,6.20
2019-02-24T03:44:35.150Z,5.80
2019-02-24T03:45:35.133Z,5.80
2019-02-24T03:46:35.122Z,6.30
2019-02-24T03:47:35.140Z,6.10
2019-02-24T03:48:35.137Z,6.00
2019-02-24T03:49:35.095Z,6.50
2019-02-24T03:50:35.091Z,5.80
2019-02-24T03:51:35.068Z,5.90
2019-02-24T03:52:35.066Z,6.60
2019-02-24T03:53:35.084Z,6.10
2019-02-24T03:54:35.035Z,6.40
2019-02-24T03:55:35.034Z,6.50
2019-02-24T03:56:35.024Z,6.40
2019-02-24T03:57:35.014Z,5.70
2019-02-24T03:58:35.003Z,6.80
2019-02-24T03:59:35.014Z,6.30
2019-02-24T04:00:34.973Z,5.80
2019-02-24T04:01:34.968Z,5.90
2019-02-24T04:02:34.964Z,6.10
2019-02-24T04:03:34.967Z,5.90
2019-02-24T04:04:34.936Z,6.00
2019-02-24T04:05:34.949Z,5.60
2019-02-24T04:06:34.908Z,6.10
2019-02-24T04:07:34.907Z,5.40
2019-02-24T04:08:34.893Z,5.20
2019-02-24T04:09:34.888Z,5.60
2019-02-24T04:10:34.906Z,5.90
2019-02-24T04:11:34.868Z,6.10
2019-02-24T04:12:34.845Z,5.60
2019-02-24T04:13:34.836Z,5.80
2019-02-24T04:14:34.825Z,6.00
2019-02-24T04:15:34.835Z,5.00
2019-02-24T04:16:34.841Z,5.60
2019-02-24T04:17:34.795Z,5.60
2019-02-24T04:18:34.782Z,5.60
2019-02-24T04:19:34.783Z,5.20
2019-02-24T04:20:34.773Z,5.60
2019-02-24T04:21:34.783Z,5.60
2019-02-24T04:22:34.746Z,5.40
2019-02-24T04:23:34.733Z,6.30
2019-02-24T04:24:34.763Z,5.90
2019-02-24T04:25:34.726Z,5.70
2019-02-24T04:26:34.728Z,5.10
2019-02-24T04:27:34.703Z,5.50
2019-02-24T04:28:34.684Z,5.70
2019-02-24T04:29:34.675Z,5.90
2019-02-24T04:30:34.663Z,5.80
2019-02-24T04:31:34.650Z,5.60
2019-02-24T04:32:34.665Z,6.10
2019-02-24T04:33:34.632Z,6.70
2019-02-24T04:34:34.619Z,6.10
2019-02-24T04:35:34.604Z,5.70
2019-02-24T04:36:34.621Z,6.00
2019-02-24T04:37:34.611Z,5.60
2019-02-24T04:38:34.572Z,5.60
2019-02-24T04:39:34.574Z,5.90
2019-02-24T04:40:34.556Z,6.30
2019-02-24T04:41:34.553Z,6.50
2019-02-24T04:42:34.571Z,6.60
2019-02-24T04:43:34.521Z,6.60
2019-02-24T04:44:34.514Z,6.80
2019-02-24T04:45:34.501Z,5.90
2019-02-24T04:46:34.492Z,7.00
2019-02-24T04:47:34.484Z,6.80
2019-02-24T04:48:34.505Z,6.60
2019-02-24T04:49:34.457Z,6.30
2019-02-24T04:50:34.448Z,6.00
2019-02-24T04:51:34.443Z,5.70
2019-02-24T04:52:34.438Z,5.90
2019-02-24T04:53:34.419Z,6.40
2019-02-24T04:54:34.442Z,5.80
2019-02-24T04:55:34.392Z,5.40
2019-02-24T04:56:34.385Z,6.00
2019-02-24T04:57:34.390Z,5.60
2019-02-24T04:58:34.370Z,6.30
2019-02-24T04:59:35.275Z,5.70
2019-02-24T05:00:34.349Z,5.10
2019-02-24T05:01:34.341Z,6.10
2019-02-24T05:02:34.327Z,5.30
2019-02-24T05:03:34.340Z,5.50
2019-02-24T05:04:34.308Z,5.40
2019-02-24T05:05:34.299Z,5.70
2019-02-24T05:06:34.295Z,6.10
2019-02-24T05:07:34.271Z,5.90
2019-02-24T05:08:34.284Z,5.70
2019-02-24T05:09:34.280Z,6.50
2019-02-24T05:10:34.256Z,7.20
2019-02-24T05:11:34.233Z,6.10
2019-02-24T05:12:34.221Z,6.40
2019-02-24T05:13:34.222Z,6.60
2019-02-24T05:14:34.197Z,6.40
2019-02-24T05:15:34.212Z,6.60
2019-02-24T05:16:34.187Z,6.20
2019-02-24T05:17:34.168Z,5.90
2019-02-24T05:18:34.150Z,6.00
2019-02-24T05:19:34.146Z,6.60
2019-02-24T05:20:34.134Z,7.40
2019-02-24T05:21:34.146Z,7.40
2019-02-24T05:22:34.107Z,6.60
2019-02-24T05:23:34.103Z,6.00
2019-02-24T05:24:34.116Z,6.80
2019-02-24T05:25:34.085Z,6.70
2019-02-24T05:26:34.103Z,6.80
2019-02-24T05:27:34.056Z,6.30
2019-02-24T05:28:34.044Z,6.10
2019-02-24T05:29:34.034Z,6.20
2019-02-24T05:30:34.033Z,6.60
2019-02-24T05:31:34.050Z,6.70
2019-02-24T05:32:34.009Z,6.40
2019-02-24T05:33:33.996Z,6.10
2019-02-24T05:34:33.987Z,6.80
2019-02-24T05:35:34.002Z,6.30
2019-02-24T05:36:33.961Z,6.50
2019-02-24T05:37:33.959Z,6.10
2019-02-24T05:38:33.948Z,6.20
2019-02-24T05:39:33.928Z,6.30
2019-02-24T05:40:33.944Z,6.50
2019-02-24T05:41:33.909Z,6.30
2019-02-24T05:42:33.931Z,6.40
2019-02-24T05:43:33.893Z,6.70
2019-02-24T05:44:33.882Z,7.20
2019-02-24T05:45:33.872Z,6.40
2019-02-24T05:46:33.863Z,7.00
2019-02-24T05:47:33.872Z,7.20
2019-02-24T05:48:33.836Z,7.00
2019-02-24T05:49:33.828Z,7.30
2019-02-24T05:50:33.813Z,6.30
2019-02-24T05:51:33.808Z,6.40
2019-02-24T05:52:33.839Z,6.70
2019-02-24T05:53:33.792Z,6.40
2019-02-24T05:54:33.770Z,6.60
2019-02-24T05:55:33.765Z,6.80
2019-02-24T05:56:33.766Z,6.40
2019-02-24T05:57:33.778Z,6.50
2019-02-24T05:58:33.734Z,6.20
2019-02-24T05:59:33.746Z,6.00
2019-02-24T06:00:33.737Z,5.90
2019-02-24T06:01:33.697Z,5.80
2019-02-24T06:02:33.704Z,5.70
2019-02-24T06:03:33.713Z,6.10
2019-02-24T06:04:33.673Z,6.50
2019-02-24T06:05:33.667Z,6.00
2019-02-24T06:06:33.650Z,6.30
2019-02-24T06:07:33.636Z,6.20
2019-02-24T06:08:33.626Z,6.10
2019-02-24T06:09:33.650Z,6.00
2019-02-24T06:10:33.636Z,6.90
2019-02-24T06:11:33.596Z,6.70
2019-02-24T06:12:33.615Z,6.50
2019-02-24T06:13:33.572Z,6.10
2019-02-24T06:14:33.562Z,5.80
2019-02-24T06:15:33.557Z,5.70
2019-02-24T06:16:33.546Z,6.30
2019-02-24T06:17:33.528Z,6.80
2019-02-24T06:18:33.548Z,6.70
2019-02-24T06:19:33.514Z,6.70
2019-02-24T06:20:33.533Z,6.90
2019-02-24T06:21:33.493Z,6.00
2019-02-24T06:22:33.483Z,6.20
2019-02-24T06:23:33.464Z,6.60
2019-02-24T06:24:33.461Z,7.10
2019-02-24T06:25:33.483Z,6.40
2019-02-24T06:26:33.439Z,6.90
2019-02-24T06:27:33.424Z,6.60
2019-02-24T06:28:33.413Z,6.50
2019-02-24T06:29:33.407Z,6.90
2019-02-24T06:30:33.394Z,6.30
2019-02-24T06:31:33.415Z,6.30
2019-02-24T06:32:33.377Z,6.40
2019-02-24T06:33:33.370Z,6.30
2019-02-24T06:34:33.356Z,6.30
2019-02-24T06:35:33.350Z,6.50
2019-02-24T06:36:33.360Z,6.60
2019-02-24T06:37:33.316Z,6.20
2019-02-24T06:38:33.308Z,6.20
2019-02-24T06:39:33.309Z,6.30
2019-02-24T06:40:33.294Z,5.80
2019-02-24T06:41:33.282Z,6.40
2019-02-24T06:42:33.306Z,6.50
2019-02-24T06:43:33.291Z,7.00
2019-02-24T06:44:33.251Z,6.10
2019-02-24T06:45:33.239Z,6.70
2019-02-24T06:46:33.258Z,7.00
2019-02-24T06:47:33.214Z,6.30
2019-02-24T06:48:33.202Z,6.10
2019-02-24T06:49:33.191Z,6.50
2019-02-24T06:50:35.581Z,6.90
2019-02-24T06:51:33.205Z,6.30
2019-02-24T06:52:33.173Z,6.50
2019-02-24T06:53:33.186Z,7.10
2019-02-24T06:54:33.146Z,6.80
2019-02-24T06:55:33.127Z,6.70
2019-02-24T06:56:33.121Z,6.20
2019-02-24T06:57:33.116Z,6.10
2019-02-24T06:58:33.105Z,6.30
2019-02-24T06:59:33.117Z,6.50
2019-02-24T07:00:33.074Z,6.20
2019-02-24T07:01:33.069Z,6.60
2019-02-24T07:02:33.087Z,6.50
2019-02-24T07:03:33.058Z,6.40
2019-02-24T07:04:33.038Z,7.00
2019-02-24T07:05:33.093Z,6.60
2019-02-24T07:06:33.021Z,7.30
2019-02-24T07:07:33.004Z,6.40
2019-02-24T07:08:33.020Z,6.70
2019-02-24T07:09:32.981Z,7.20
2019-02-24T07:10:32.970Z,7.10
2019-02-24T07:11:32.989Z,6.00
2019-02-24T07:12:32.955Z,6.60
2019-02-24T07:13:32.945Z,7.00
2019-02-24T07:14:32.928Z,6.90
2019-02-24T07:16:26.324Z,6.70
2019-02-24T07:17:25.685Z,7.80
2019-02-24T07:18:25.643Z,7.60
2019-02-24T07:19:25.638Z,7.20
2019-02-24T07:20:25.683Z,7.40
2019-02-24T07:21:25.618Z,7.20
2019-02-24T07:22:25.605Z,7.30
2019-02-24T07:23:25.604Z,7.60
2019-02-24T07:24:25.591Z,6.90
2019-02-24T07:25:25.609Z,7.50
2019-02-24T07:26:25.567Z,7.70
2019-02-24T07:27:25.566Z,7.20
2019-02-24T07:28:25.543Z,7.70
2019-02-24T07:29:25.527Z,7.70
2019-02-24T07:30:25.522Z,7.90
2019-02-24T07:31:25.537Z,7.60
2019-02-24T07:32:25.539Z,7.30
2019-02-24T07:33:25.492Z,7.30
2019-02-24T07:34:25.486Z,7.60
2019-02-24T07:35:25.479Z,7.60
2019-02-24T07:36:25.509Z,7.00
2019-02-24T07:37:25.450Z,7.70
2019-02-24T07:38:25.519Z,7.80
2019-02-24T07:39:25.467Z,7.50
2019-02-24T07:40:25.438Z,7.40
2019-02-24T07:41:25.403Z,7.20
2019-02-24T07:42:25.420Z,7.50
2019-02-24T07:43:25.384Z,7.30
2019-02-24T07:44:25.374Z,7.40
2019-02-24T07:45:25.372Z,7.00
2019-02-24T07:46:25.359Z,7.00
2019-02-24T07:47:25.377Z,7.70
2019-02-24T07:48:25.326Z,7.60
2019-02-24T07:49:25.318Z,8.00
2019-02-24T07:50:25.310Z,7.70
2019-02-24T07:51:25.314Z,8.70
2019-02-24T07:52:25.291Z,8.30
2019-02-24T07:53:25.303Z,6.90
2019-02-24T07:54:25.300Z,7.30
2019-02-24T07:55:25.252Z,7.60
2019-02-24T07:56:25.249Z,7.60
2019-02-24T07:57:25.242Z,7.60
2019-02-24T07:58:25.248Z,7.80
2019-02-24T07:59:25.239Z,7.40
2019-02-24T08:00:31.895Z,7.30
2019-02-24T08:01:26.205Z,6.90
2019-02-24T08:02:25.182Z,7.70
2019-02-24T08:03:25.214Z,7.50
2019-02-24T08:04:25.234Z,7.10
2019-02-24T08:05:25.238Z,7.10
2019-02-24T08:06:25.142Z,7.80
2019-02-24T08:07:25.133Z,7.40
2019-02-24T08:08:25.235Z,7.50
2019-02-24T08:09:25.140Z,6.70
2019-02-24T08:10:25.143Z,7.30
2019-02-24T08:11:25.090Z,7.10
2019-02-24T08:12:25.077Z,7.70
2019-02-24T08:13:25.073Z,7.30
2019-02-24T08:14:25.081Z,7.10
2019-02-24T08:15:25.044Z,6.90
2019-02-24T08:16:25.035Z,7.20
2019-02-24T08:17:25.025Z,7.60
2019-02-24T08:18:25.023Z,6.90
2019-02-24T08:19:25.066Z,7.40
2019-02-24T08:20:24.988Z,7.40
2019-02-24T08:21:24.976Z,7.20
2019-02-24T08:22:24.967Z,7.20
2019-02-24T08:23:24.957Z,7.20
2019-02-24T08:24:24.951Z,6.90
2019-02-24T08:25:24.974Z,6.40
2019-02-24T08:26:24.935Z,6.80
2019-02-24T08:27:24.913Z,7.00
2019-02-24T08:28:24.910Z,7.00
2019-02-24T08:29:24.898Z,6.80
2019-02-24T08:30:24.888Z,7.60
2019-02-24T08:31:24.909Z,7.00
2019-02-24T08:32:24.924Z,7.10
2019-02-24T08:33:24.851Z,7.10
2019-02-24T08:34:24.844Z,7.60
2019-02-24T08:35:24.854Z,6.80
2019-02-24T08:36:24.882Z,27.20
2019-02-24T08:37:24.816Z,57.10
2019-02-24T08:38:24.804Z,19.00
2019-02-24T08:39:24.794Z,24.80
2019-02-24T08:40:24.775Z,11.70
2019-02-24T08:41:24.801Z,7.70
2019-02-24T08:42:24.765Z,8.90
2019-02-24T08:43:24.749Z,10.50
2019-02-24T08:44:24.751Z,9.60
2019-02-24T08:45:24.735Z,7.10
2019-02-24T08:46:24.728Z,7.90
2019-02-24T08:47:24.734Z,7.70
2019-02-24T08:48:24.713Z,8.10
2019-02-24T08:49:24.689Z,7.80
2019-02-24T08:50:24.678Z,7.20
2019-02-24T08:51:24.664Z,7.40
2019-02-24T08:52:24.687Z,7.50
2019-02-24T08:53:24.639Z,7.90
2019-02-24T08:54:24.627Z,7.70
2019-02-24T08:55:24.615Z,7.30
2019-02-24T08:56:24.614Z,8.70
2019-02-24T08:57:24.600Z,7.30
2019-02-24T08:58:24.610Z,7.60
2019-02-24T08:59:24.572Z,8.10
2019-02-24T09:00:24.571Z,8.00
2019-02-24T09:01:24.556Z,8.40
2019-02-24T09:02:24.551Z,8.00
2019-02-24T09:03:24.566Z,8.60
2019-02-24T09:04:24.523Z,9.10
2019-02-24T09:05:24.507Z,8.90
2019-02-24T09:06:24.503Z,8.60
2019-02-24T09:07:24.484Z,9.00
2019-02-24T09:08:24.525Z,8.50
2019-02-24T09:09:24.490Z,8.90
2019-02-24T09:10:24.459Z,8.80
2019-02-24T09:11:24.449Z,8.60
2019-02-24T09:12:24.440Z,8.70
2019-02-24T09:13:24.424Z,8.70
2019-02-24T09:14:24.453Z,8.70
2019-02-24T09:15:24.416Z,8.20
2019-02-24T09:16:24.395Z,8.80
2019-02-24T09:17:24.383Z,9.00
2019-02-24T09:18:24.376Z,8.90
2019-02-24T09:19:24.360Z,9.10
2019-02-24T09:20:24.393Z,8.80
2019-02-24T09:21:24.346Z,8.60
2019-02-24T09:22:24.338Z,8.30
2019-02-24T09:23:24.324Z,9.70
2019-02-24T09:24:24.340Z,9.30
2019-02-24T09:25:24.295Z,8.80
2019-02-24T09:26:24.288Z,9.00
2019-02-24T09:27:24.278Z,9.90
2019-02-24T09:28:24.271Z,9.30
2019-02-24T09:29:24.259Z,9.30
2019-02-24T09:30:24.282Z,9.80
2019-02-24T09:31:24.233Z,9.60
2019-02-24T09:32:24.231Z,10.20
2019-02-24T09:33:24.219Z,9.70
2019-02-24T09:34:24.215Z,9.30
2019-02-24T09:35:24.258Z,9.10
2019-02-24T09:36:24.184Z,9.40
2019-02-24T09:37:24.171Z,9.10
2019-02-24T09:38:24.165Z,9.40
2019-02-24T09:39:24.154Z,9.50
2019-02-24T09:40:24.146Z,9.20
2019-02-24T09:41:24.165Z,9.30
2019-02-24T09:42:24.126Z,9.70
2019-02-24T09:43:24.117Z,10.50
2019-02-24T09:44:24.104Z,9.10
2019-02-24T09:45:24.087Z,8.30
2019-02-24T09:46:24.132Z,9.40
2019-02-24T09:47:24.073Z,8.50
2019-02-24T09:48:24.059Z,8.50
2019-02-24T09:49:24.046Z,8.80
2019-02-24T09:50:24.039Z,9.00
2019-02-24T09:51:24.023Z,8.60
2019-02-24T09:52:24.059Z,8.40
2019-02-24T09:53:24.014Z,8.90
2019-02-24T09:54:23.996Z,9.10
2019-02-24T09:55:23.987Z,8.80
2019-02-24T09:56:23.985Z,8.20
2019-02-24T09:57:24.001Z,8.60
2019-02-24T09:58:23.953Z,8.70
2019-02-24T09:59:23.941Z,9.20
2019-02-24T10:00:23.948Z,8.30
2019-02-24T10:01:23.929Z,8.60
2019-02-24T10:02:23.945Z,8.30
2019-02-24T10:03:23.898Z,8.30
2019-02-24T10:04:23.892Z,8.70
2019-02-24T10:05:23.885Z,8.40
2019-02-24T10:06:23.913Z,8.30
2019-02-24T10:07:23.956Z,8.70
2019-02-24T10:08:23.847Z,8.40
2019-02-24T10:09:23.837Z,8.30
2019-02-24T10:10:23.827Z,9.30
2019-02-24T10:11:23.814Z,8.10
2019-02-24T10:12:23.830Z,8.60
2019-02-24T10:13:23.811Z,8.00
2019-02-24T10:14:23.806Z,8.40
2019-02-24T10:15:23.816Z,8.80
2019-02-24T10:16:23.773Z,8.30
2019-02-24T10:17:23.789Z,8.50
2019-02-24T10:18:23.751Z,8.60
2019-02-24T10:19:23.741Z,8.20
2019-02-24T10:20:23.718Z,8.20
2019-02-24T10:21:23.712Z,7.90
2019-02-24T10:22:23.699Z,8.60
2019-02-24T10:23:23.732Z,8.00
2019-02-24T10:24:23.685Z,7.60
2019-02-24T10:25:23.674Z,7.60
2019-02-24T10:26:23.687Z,8.40
2019-02-24T10:27:23.657Z,8.20
2019-02-24T10:28:23.738Z,8.20
2019-02-24T10:29:23.631Z,8.10
2019-02-24T10:30:23.689Z,7.50
2019-02-24T10:31:23.609Z,7.10
2019-02-24T10:32:23.641Z,7.90
2019-02-24T10:33:23.597Z,7.50
2019-02-24T10:34:23.579Z,8.00
2019-02-24T10:35:23.623Z,8.20
2019-02-24T10:36:23.590Z,7.70
2019-02-24T10:37:23.552Z,8.00
2019-02-24T10:38:23.571Z,8.00
2019-02-24T10:39:29.715Z,7.70
2019-02-24T10:40:24.547Z,7.50
2019-02-24T10:41:23.500Z,7.20
2019-02-24T10:42:23.489Z,7.20
2019-02-24T10:43:23.530Z,7.80
2019-02-24T10:44:23.475Z,7.50
2019-02-24T10:45:23.494Z,6.70
2019-02-24T10:46:23.463Z,6.90
2019-02-24T10:47:23.487Z,7.30
2019-02-24T10:48:23.428Z,7.00
2019-02-24T10:49:23.419Z,7.20
2019-02-24T10:50:23.509Z,7.00
2019-02-24T10:51:25.349Z,6.60
2019-02-24T10:52:23.394Z,6.70
2019-02-24T10:53:23.374Z,6.70
2019-02-24T10:54:23.358Z,6.40
2019-02-24T10:55:23.349Z,6.60
2019-02-24T10:56:23.409Z,6.30
2019-02-24T10:57:23.431Z,6.50
2019-02-24T10:58:23.337Z,6.70
2019-02-24T10:59:23.318Z,6.10
2019-02-24T11:00:23.380Z,6.00
2019-02-24T11:01:29.568Z,6.20
2019-02-24T11:02:24.457Z,6.30
2019-02-24T11:03:23.272Z,5.40
2019-02-24T11:04:23.272Z,6.40
2019-02-24T11:05:23.255Z,6.00
2019-02-24T11:06:23.268Z,6.30
2019-02-24T11:07:23.266Z,6.00
2019-02-24T11:08:23.221Z,6.10
2019-02-24T11:09:23.236Z,5.70
2019-02-24T11:10:23.238Z,6.20
2019-02-24T11:11:23.254Z,6.40
2019-02-24T11:12:23.182Z,6.20
2019-02-24T11:13:23.181Z,6.40
2019-02-24T11:14:23.162Z,6.20
2019-02-24T11:15:23.141Z,6.20
2019-02-24T11:16:23.155Z,5.70
2019-02-24T11:17:23.162Z,6.40
2019-02-24T11:18:23.204Z,6.40
2019-02-24T11:19:23.128Z,6.10
2019-02-24T11:20:23.091Z,6.40
2019-02-24T11:21:28.202Z,5.80
2019-02-24T11:22:24.139Z,5.50
2019-02-24T11:23:23.112Z,5.90
2019-02-24T11:24:23.120Z,5.70
2019-02-24T11:25:24.591Z,6.00
2019-02-24T11:26:23.060Z,5.60
2019-02-24T11:27:23.026Z,5.70
2019-02-24T11:28:23.019Z,6.30
2019-02-24T11:29:23.121Z,6.40
2019-02-24T11:30:23.260Z,6.00
2019-02-24T11:31:22.999Z,6.00
2019-02-24T11:32:22.974Z,5.90
2019-02-24T11:33:23.000Z,5.80
2019-02-24T11:34:23.024Z,5.90
2019-02-24T11:35:22.937Z,5.10
2019-02-24T11:36:23.034Z,5.90
2019-02-24T11:37:22.915Z,12.10
2019-02-24T11:38:23.005Z,6.50
2019-02-24T11:39:22.948Z,9.90
2019-02-24T11:40:22.952Z,7.70
2019-02-24T11:41:22.891Z,5.40
2019-02-24T11:42:22.972Z,8.90
2019-02-24T11:43:22.915Z,8.40
2019-02-24T11:44:22.888Z,6.20
2019-02-24T11:45:22.905Z,5.40
2019-02-24T11:46:22.891Z,5.00
2019-02-24T11:47:22.839Z,5.00
2019-02-24T11:48:22.929Z,5.20
2019-02-24T11:49:24.095Z,5.40
2019-02-24T11:50:22.777Z,5.60
2019-02-24T11:51:22.783Z,5.90
2019-02-24T11:52:22.801Z,6.40
2019-02-24T11:53:22.810Z,5.40
2019-02-24T11:54:22.751Z,4.90
2019-02-24T11:55:22.754Z,4.30
2019-02-24T11:56:22.724Z,5.10
2019-02-24T11:57:22.805Z,5.10
2019-02-24T11:58:22.692Z,6.40
2019-02-24T11:59:22.687Z,5.30
2019-02-24T12:00:22.757Z,5.10
2019-02-24T12:01:22.688Z,7.70
2019-02-24T12:02:22.722Z,6.50
2019-02-24T12:03:22.758Z,7.00
2019-02-24T12:04:22.669Z,4.90
2019-02-24T12:05:22.672Z,4.20
2019-02-24T12:06:22.822Z,5.20
2019-02-24T12:07:22.619Z,4.40
2019-02-24T12:08:22.699Z,4.20
2019-02-24T12:09:22.611Z,4.60
2019-02-24T12:10:22.584Z,4.00
2019-02-24T12:11:22.587Z,4.00
2019-02-24T12:12:22.560Z,5.30
2019-02-24T12:13:22.567Z,3.60
2019-02-24T12:14:22.584Z,3.90
2019-02-24T12:15:22.690Z,4.30
2019-02-24T12:16:23.613Z,5.60
2019-02-24T12:17:22.697Z,4.80
2019-02-24T12:18:22.783Z,3.80
2019-02-24T12:19:22.594Z,3.60
2019-02-24T12:20:23.698Z,3.60
2019-02-24T12:21:22.511Z,3.20
2019-02-24T12:22:22.509Z,3.90
2019-02-24T12:23:22.444Z,3.90
2019-02-24T12:24:22.490Z,4.50
2019-02-24T12:25:22.421Z,3.80
2019-02-24T12:26:22.410Z,3.70
2019-02-24T12:27:22.415Z,4.10
2019-02-24T12:28:22.476Z,3.70
2019-02-24T12:29:22.437Z,3.50
2019-02-24T12:30:22.416Z,3.30
2019-02-24T12:31:22.447Z,3.10
2019-02-24T12:32:22.467Z,2.90
2019-02-24T12:33:23.037Z,3.10
2019-02-24T12:34:22.407Z,3.80
2019-02-24T12:35:22.359Z,3.80
2019-02-24T12:36:22.706Z,3.10
2019-02-24T12:37:22.493Z,2.90
2019-02-24T12:38:22.389Z,3.00
2019-02-24T12:39:22.355Z,3.20
2019-02-24T12:40:22.355Z,3.10
2019-02-24T12:41:22.263Z,3.20
2019-02-24T12:42:22.264Z,3.40
2019-02-24T12:43:22.242Z,3.40
2019-02-24T12:44:22.243Z,3.20
2019-02-24T12:45:22.261Z,3.30
2019-02-24T12:46:22.187Z,2.90
2019-02-24T12:47:22.189Z,3.00
2019-02-24T12:48:22.234Z,3.00
2019-02-24T12:49:22.310Z,3.70
2019-02-24T12:50:22.196Z,3.70
2019-02-24T12:51:22.172Z,4.00
2019-02-24T12:52:22.141Z,3.20
2019-02-24T12:53:22.128Z,4.40
2019-02-24T12:54:22.107Z,3.60
2019-02-24T12:55:22.129Z,3.70
2019-02-24T12:56:22.076Z,3.30
2019-02-24T12:57:22.085Z,3.10
2019-02-24T12:58:22.091Z,4.20
2019-02-24T12:59:22.110Z,3.40
2019-02-24T13:00:22.034Z,3.30
2019-02-24T13:01:22.025Z,4.40
2019-02-24T13:02:22.046Z,5.30
2019-02-24T13:03:24.201Z,6.80
2019-02-24T13:04:22.010Z,10.10
2019-02-24T13:05:22.034Z,8.30
2019-02-24T13:06:21.964Z,6.00
2019-02-24T13:07:21.989Z,6.40
2019-02-24T13:08:21.929Z,5.10
2019-02-24T13:09:21.938Z,4.40
2019-02-24T13:10:21.906Z,4.00
2019-02-24T13:11:22.021Z,5.00
2019-02-24T13:12:21.910Z,5.60
2019-02-24T13:13:21.897Z,6.10
2019-02-24T13:14:21.883Z,5.40
2019-02-24T13:15:21.862Z,6.90
2019-02-24T13:16:21.881Z,6.20
2019-02-24T13:17:22.320Z,6.00
2019-02-24T13:18:21.824Z,5.20
2019-02-24T13:19:21.839Z,7.30